sensor_id;sensor_type;location;lat;lon;timestamp;pressure;altitude;pressure_sealevel;temperature;humidity
7774;BME280;3931;42.260;23.116;2023-11-21T00:02:20;95250.78;;;7.90;100.00
7774;BME280;3931;42.260;23.116;2023-11-21T00:04:47;95251.63;;;7.87;100.00
7774;BME280;3931;42.260;23.116;2023-11-21T00:07:13;95251.78;;;7.60;100.00
7774;BME280;3931;42.260;23.116;2023-11-21T00:09:40;95262.88;;;7.76;100.00
7774;BME280;3931;42.260;23.116;2023-11-21T00:12:07;95261.78;;;7.70;100.00
7774;BME280;3931;42.260;23.116;2023-11-21T00:14:35;95261.53;;;7.65;100.00
7774;BME280;3931;42.260;23.116;2023-11-21T00:17:01;95253.97;;;7.69;100.00
7774;BME280;3931;42.260;23.116;2023-11-21T00:19:27;95257.41;;;7.73;100.00
7774;BME280;3931;42.260;23.116;2023-11-21T00:21:54;95259.13;;;7.67;100.00
7774;BME280;3931;42.260;23.116;2023-11-21T00:24:20;95264.72;;;7.63;100.00
7774;BME280;3931;42.260;23.116;2023-11-21T00:26:46;95256.72;;;7.69;100.00
7774;BME280;3931;42.260;23.116;2023-11-21T00:29:14;95257.78;;;7.55;100.00
7774;BME280;3931;42.260;23.116;2023-11-21T00:31:42;95264.41;;;7.58;100.00
7774;BME280;3931;42.260;23.116;2023-11-21T00:34:08;95269.69;;;7.49;100.00
7774;BME280;3931;42.260;23.116;2023-11-21T00:36:35;95270.03;;;7.51;100.00
7774;BME280;3931;42.260;23.116;2023-11-21T00:39:01;95264.41;;;7.58;100.00
7774;BME280;3931;42.260;23.116;2023-11-21T00:41:29;95266.66;;;7.43;100.00
7774;BME280;3931;42.260;23.116;2023-11-21T00:43:55;95266.28;;;7.41;100.00
7774;BME280;3931;42.260;23.116;2023-11-21T00:46:21;95273.28;;;7.46;100.00
7774;BME280;3931;42.260;23.116;2023-11-21T00:48:49;95279.28;;;7.41;100.00
7774;BME280;3931;42.260;23.116;2023-11-21T00:51:15;95275.69;;;7.44;100.00
7774;BME280;3931;42.260;23.116;2023-11-21T00:53:41;95287.94;;;7.39;100.00
7774;BME280;3931;42.260;23.116;2023-11-21T00:56:08;95288.88;;;7.52;100.00
7774;BME280;3931;42.260;23.116;2023-11-21T00:58:34;95284.00;;;7.40;100.00
7774;BME280;3931;42.260;23.116;2023-11-21T01:01:00;95290.66;;;7.43;100.00
7774;BME280;3931;42.260;23.116;2023-11-21T01:03:28;95284.28;;;7.46;100.00
7774;BME280;3931;42.260;23.116;2023-11-21T01:05:54;95273.47;;;7.35;100.00
7774;BME280;3931;42.260;23.116;2023-11-21T01:08:20;95273.84;;;7.37;100.00
7774;BME280;3931;42.260;23.116;2023-11-21T01:10:46;95269.47;;;7.40;100.00
7774;BME280;3931;42.260;23.116;2023-11-21T01:13:14;95263.59;;;7.38;100.00
7774;BME280;3931;42.260;23.116;2023-11-21T01:15:41;95260.94;;;7.34;100.00
7774;BME280;3931;42.260;23.116;2023-11-21T01:18:07;95260.44;;;7.39;100.00
7774;BME280;3931;42.260;23.116;2023-11-21T01:20:34;95265.00;;;7.26;100.00
7774;BME280;3931;42.260;23.116;2023-11-21T01:23:00;95257.09;;;7.28;100.00
7774;BME280;3931;42.260;23.116;2023-11-21T01:25:26;95267.53;;;6.94;100.00
7774;BME280;3931;42.260;23.116;2023-11-21T01:27:52;95278.94;;;6.69;100.00
7774;BME280;3931;42.260;23.116;2023-11-21T01:30:19;95289.63;;;6.63;100.00
7774;BME280;3931;42.260;23.116;2023-11-21T01:32:45;95296.00;;;6.57;100.00
7774;BME280;3931;42.260;23.116;2023-11-21T01:35:11;95303.47;;;6.56;100.00
7774;BME280;3931;42.260;23.116;2023-11-21T01:37:37;95295.63;;;6.82;100.00
7774;BME280;3931;42.260;23.116;2023-11-21T01:40:04;95281.94;;;6.78;100.00
7774;BME280;3931;42.260;23.116;2023-11-21T01:42:34;95278.22;;;6.88;100.00
7774;BME280;3931;42.260;23.116;2023-11-21T01:45:00;95281.97;;;6.75;100.00
7774;BME280;3931;42.260;23.116;2023-11-21T01:47:30;95279.94;;;6.79;100.00
7774;BME280;3931;42.260;23.116;2023-11-21T01:49:57;95288.69;;;6.74;100.00
7774;BME280;3931;42.260;23.116;2023-11-21T01:52:23;95289.16;;;6.69;100.00
7774;BME280;3931;42.260;23.116;2023-11-21T01:54:50;95281.22;;;6.47;100.00
7774;BME280;3931;42.260;23.116;2023-11-21T01:57:16;95295.28;;;6.26;100.00
7774;BME280;3931;42.260;23.116;2023-11-21T01:59:44;95294.59;;;5.88;100.00
7774;BME280;3931;42.260;23.116;2023-11-21T02:02:11;95294.91;;;5.94;100.00
7774;BME280;3931;42.260;23.116;2023-11-21T02:04:38;95284.66;;;6.28;100.00
7774;BME280;3931;42.260;23.116;2023-11-21T02:07:04;95277.56;;;6.54;100.00
7774;BME280;3931;42.260;23.116;2023-11-21T02:09:31;95268.59;;;6.53;100.00
7774;BME280;3931;42.260;23.116;2023-11-21T02:11:58;95257.16;;;6.55;100.00
7774;BME280;3931;42.260;23.116;2023-11-21T02:14:25;95268.34;;;6.14;100.00
7774;BME280;3931;42.260;23.116;2023-11-21T02:16:52;95265.81;;;6.00;100.00
7774;BME280;3931;42.260;23.116;2023-11-21T02:19:20;95278.09;;;6.19;100.00
7774;BME280;3931;42.260;23.116;2023-11-21T02:21:50;95270.91;;;6.28;100.00
7774;BME280;3931;42.260;23.116;2023-11-21T02:24:19;95272.47;;;6.29;100.00
7774;BME280;3931;42.260;23.116;2023-11-21T02:26:45;95267.72;;;6.33;100.00
7774;BME280;3931;42.260;23.116;2023-11-21T02:29:11;95270.66;;;6.46;100.00
7774;BME280;3931;42.260;23.116;2023-11-21T02:31:38;95270.84;;;6.32;100.00
7774;BME280;3931;42.260;23.116;2023-11-21T02:34:13;95269.97;;;6.38;100.00
7774;BME280;3931;42.260;23.116;2023-11-21T02:36:39;95273.97;;;6.60;100.00
7774;BME280;3931;42.260;23.116;2023-11-21T02:39:05;95271.09;;;6.68;100.00
7774;BME280;3931;42.260;23.116;2023-11-21T02:41:33;95267.19;;;6.42;100.00
7774;BME280;3931;42.260;23.116;2023-11-21T02:44:00;95274.44;;;6.29;100.00
7774;BME280;3931;42.260;23.116;2023-11-21T02:46:26;95274.97;;;6.47;100.00
7774;BME280;3931;42.260;23.116;2023-11-21T02:48:52;95281.75;;;6.39;100.00
7774;BME280;3931;42.260;23.116;2023-11-21T02:51:19;95275.59;;;6.31;100.00
7774;BME280;3931;42.260;23.116;2023-11-21T02:53:45;95268.31;;;6.18;100.00
7774;BME280;3931;42.260;23.116;2023-11-21T02:56:12;95265.47;;;6.25;100.00
7774;BME280;3931;42.260;23.116;2023-11-21T02:58:41;95275.16;;;6.33;100.00
7774;BME280;3931;42.260;23.116;2023-11-21T03:01:08;95271.97;;;6.61;100.00
7774;BME280;3931;42.260;23.116;2023-11-21T03:03:34;95260.16;;;6.64;100.00
7774;BME280;3931;42.260;23.116;2023-11-21T03:06:05;95244.47;;;6.65;100.00
7774;BME280;3931;42.260;23.116;2023-11-21T03:08:31;95245.84;;;6.49;100.00
7774;BME280;3931;42.260;23.116;2023-11-21T03:10:58;95244.88;;;6.36;100.00
7774;BME280;3931;42.260;23.116;2023-11-21T03:13:24;95246.97;;;6.55;100.00
7774;BME280;3931;42.260;23.116;2023-11-21T03:15:51;95241.16;;;6.73;100.00
7774;BME280;3931;42.260;23.116;2023-11-21T03:18:17;95237.78;;;6.89;100.00
7774;BME280;3931;42.260;23.116;2023-11-21T03:20:43;95232.78;;;7.03;100.00
7774;BME280;3931;42.260;23.116;2023-11-21T03:23:11;95239.19;;;6.97;100.00
7774;BME280;3931;42.260;23.116;2023-11-21T03:25:37;95236.69;;;6.83;100.00
7774;BME280;3931;42.260;23.116;2023-11-21T03:28:04;95248.69;;;6.92;100.00
7774;BME280;3931;42.260;23.116;2023-11-21T03:30:30;95247.44;;;6.97;100.00
7774;BME280;3931;42.260;23.116;2023-11-21T03:32:56;95243.53;;;6.94;100.00
7774;BME280;3931;42.260;23.116;2023-11-21T03:35:22;95242.06;;;6.90;100.00
7774;BME280;3931;42.260;23.116;2023-11-21T03:37:49;95242.13;;;6.86;100.00
7774;BME280;3931;42.260;23.116;2023-11-21T03:40:15;95242.91;;;6.87;100.00
7774;BME280;3931;42.260;23.116;2023-11-21T03:42:41;95239.38;;;6.86;100.00
7774;BME280;3931;42.260;23.116;2023-11-21T03:45:08;95245.94;;;6.92;100.00
7774;BME280;3931;42.260;23.116;2023-11-21T03:47:34;95238.56;;;6.89;100.00
7774;BME280;3931;42.260;23.116;2023-11-21T03:50:01;95225.28;;;6.84;100.00
7774;BME280;3931;42.260;23.116;2023-11-21T03:52:28;95226.97;;;6.78;100.00
7774;BME280;3931;42.260;23.116;2023-11-21T03:54:54;95223.66;;;6.63;100.00
7774;BME280;3931;42.260;23.116;2023-11-21T03:57:20;95236.50;;;6.70;100.00
7774;BME280;3931;42.260;23.116;2023-11-21T03:59:46;95239.50;;;6.79;100.00
7774;BME280;3931;42.260;23.116;2023-11-21T04:02:13;95241.63;;;6.68;100.00
7774;BME280;3931;42.260;23.116;2023-11-21T04:04:39;95238.41;;;6.50;100.00
7774;BME280;3931;42.260;23.116;2023-11-21T04:07:05;95237.09;;;6.58;100.00
7774;BME280;3931;42.260;23.116;2023-11-21T04:09:31;95241.16;;;6.73;100.00
7774;BME280;3931;42.260;23.116;2023-11-21T04:11:58;95247.19;;;6.88;100.00
7774;BME280;3931;42.260;23.116;2023-11-21T04:14:24;95246.06;;;6.85;100.00
7774;BME280;3931;42.260;23.116;2023-11-21T04:16:50;95236.03;;;6.98;100.00
7774;BME280;3931;42.260;23.116;2023-11-21T04:19:16;95233.22;;;7.02;100.00
7774;BME280;3931;42.260;23.116;2023-11-21T04:21:42;95223.47;;;6.97;100.00
7774;BME280;3931;42.260;23.116;2023-11-21T04:24:09;95215.53;;;6.56;100.00
7774;BME280;3931;42.260;23.116;2023-11-21T04:26:35;95227.91;;;6.45;100.00
7774;BME280;3931;42.260;23.116;2023-11-21T04:29:02;95237.31;;;6.44;100.00
7774;BME280;3931;42.260;23.116;2023-11-21T04:31:28;95238.22;;;6.37;100.00
7774;BME280;3931;42.260;23.116;2023-11-21T04:33:54;95240.97;;;6.37;100.00
7774;BME280;3931;42.260;23.116;2023-11-21T04:36:20;95244.41;;;6.41;100.00
7774;BME280;3931;42.260;23.116;2023-11-21T04:38:46;95242.72;;;6.24;100.00
7774;BME280;3931;42.260;23.116;2023-11-21T04:41:13;95247.44;;;6.24;100.00
7774;BME280;3931;42.260;23.116;2023-11-21T04:43:39;95247.78;;;6.26;100.00
7774;BME280;3931;42.260;23.116;2023-11-21T04:46:05;95252.13;;;6.23;100.00
7774;BME280;3931;42.260;23.116;2023-11-21T04:48:32;95252.59;;;6.18;100.00
7774;BME280;3931;42.260;23.116;2023-11-21T04:50:58;95254.44;;;6.28;100.00
7774;BME280;3931;42.260;23.116;2023-11-21T04:53:24;95249.72;;;6.29;100.00
7774;BME280;3931;42.260;23.116;2023-11-21T04:55:50;95252.03;;;6.30;100.00
7774;BME280;3931;42.260;23.116;2023-11-21T04:58:17;95251.22;;;6.33;100.00
7774;BME280;3931;42.260;23.116;2023-11-21T05:00:44;95251.63;;;6.32;100.00
7774;BME280;3931;42.260;23.116;2023-11-21T05:03:10;95253.53;;;6.35;100.00
7774;BME280;3931;42.260;23.116;2023-11-21T05:05:37;95252.56;;;6.22;100.00
7774;BME280;3931;42.260;23.116;2023-11-21T05:08:03;95257.72;;;6.43;100.00
7774;BME280;3931;42.260;23.116;2023-11-21T05:10:30;95260.88;;;6.45;100.00
7774;BME280;3931;42.260;23.116;2023-11-21T05:12:56;95254.63;;;6.41;100.00
7774;BME280;3931;42.260;23.116;2023-11-21T05:15:23;95247.06;;;6.48;100.00
7774;BME280;3931;42.260;23.116;2023-11-21T05:17:50;95245.38;;;6.54;100.00
7774;BME280;3931;42.260;23.116;2023-11-21T05:20:17;95244.84;;;6.63;100.00
7774;BME280;3931;42.260;23.116;2023-11-21T05:22:46;95236.56;;;6.67;100.00
7774;BME280;3931;42.260;23.116;2023-11-21T05:25:12;95233.81;;;6.67;100.00
7774;BME280;3931;42.260;23.116;2023-11-21T05:27:38;95230.81;;;6.57;100.00
7774;BME280;3931;42.260;23.116;2023-11-21T05:30:06;95233.41;;;6.68;100.00
7774;BME280;3931;42.260;23.116;2023-11-21T05:32:35;95228.44;;;6.83;100.00
7774;BME280;3931;42.260;23.116;2023-11-21T05:35:01;95235.31;;;6.71;100.00
7774;BME280;3931;42.260;23.116;2023-11-21T05:37:27;95242.72;;;6.74;100.00
7774;BME280;3931;42.260;23.116;2023-11-21T05:39:53;95246.56;;;6.80;100.00
7774;BME280;3931;42.260;23.116;2023-11-21T05:42:21;95238.88;;;6.68;100.00
7774;BME280;3931;42.260;23.116;2023-11-21T05:44:49;95247.50;;;6.70;100.00
7774;BME280;3931;42.260;23.116;2023-11-21T05:47:15;95241.06;;;6.80;100.00
7774;BME280;3931;42.260;23.116;2023-11-21T05:49:41;95244.16;;;6.82;100.00
7774;BME280;3931;42.260;23.116;2023-11-21T05:52:07;95237.47;;;6.83;100.00
7774;BME280;3931;42.260;23.116;2023-11-21T05:54:33;95235.81;;;6.89;100.00
7774;BME280;3931;42.260;23.116;2023-11-21T05:56:59;95229.56;;;7.08;100.00
7774;BME280;3931;42.260;23.116;2023-11-21T05:59:26;95229.00;;;7.17;100.00
7774;BME280;3931;42.260;23.116;2023-11-21T06:01:52;95223.03;;;7.22;100.00
7774;BME280;3931;42.260;23.116;2023-11-21T06:04:19;95222.34;;;7.38;100.00
7774;BME280;3931;42.260;23.116;2023-11-21T06:06:50;95220.94;;;7.49;100.00
7774;BME280;3931;42.260;23.116;2023-11-21T06:09:16;95215.34;;;7.53;100.00
7774;BME280;3931;42.260;23.116;2023-11-21T06:11:42;95213.25;;;7.60;100.00
7774;BME280;3931;42.260;23.116;2023-11-21T06:14:08;95210.31;;;7.87;100.00
7774;BME280;3931;42.260;23.116;2023-11-21T06:16:35;95206.25;;;8.11;100.00
7774;BME280;3931;42.260;23.116;2023-11-21T06:19:01;95197.47;;;8.16;100.00
7774;BME280;3931;42.260;23.116;2023-11-21T06:21:27;95210.91;;;8.14;100.00
7774;BME280;3931;42.260;23.116;2023-11-21T06:23:54;95209.59;;;8.38;100.00
7774;BME280;3931;42.260;23.116;2023-11-21T06:26:22;95205.47;;;8.46;100.00
7774;BME280;3931;42.260;23.116;2023-11-21T06:28:49;95211.00;;;8.62;100.00
7774;BME280;3931;42.260;23.116;2023-11-21T06:31:16;95217.19;;;8.82;100.00
7774;BME280;3931;42.260;23.116;2023-11-21T06:33:43;95215.63;;;8.81;100.00
7774;BME280;3931;42.260;23.116;2023-11-21T06:36:10;95223.66;;;8.76;100.00
7774;BME280;3931;42.260;23.116;2023-11-21T06:38:37;95218.03;;;8.79;100.00
7774;BME280;3931;42.260;23.116;2023-11-21T06:41:04;95226.59;;;8.85;100.00
7774;BME280;3931;42.260;23.116;2023-11-21T06:43:30;95232.28;;;8.94;100.00
7774;BME280;3931;42.260;23.116;2023-11-21T06:45:56;95250.56;;;9.33;100.00
7774;BME280;3931;42.260;23.116;2023-11-21T06:48:22;95251.84;;;9.44;100.00
7774;BME280;3931;42.260;23.116;2023-11-21T06:50:48;95260.88;;;9.32;100.00
7774;BME280;3931;42.260;23.116;2023-11-21T06:53:14;95264.47;;;9.45;100.00
7774;BME280;3931;42.260;23.116;2023-11-21T06:55:41;95258.41;;;9.79;100.00
7774;BME280;3931;42.260;23.116;2023-11-21T06:58:07;95277.28;;;9.52;100.00
7774;BME280;3931;42.260;23.116;2023-11-21T07:00:34;95271.63;;;9.72;100.00
7774;BME280;3931;42.260;23.116;2023-11-21T07:03:00;95291.38;;;10.27;100.00
7774;BME280;3931;42.260;23.116;2023-11-21T07:05:26;95310.47;;;10.76;100.00
7774;BME280;3931;42.260;23.116;2023-11-21T07:07:52;95332.94;;;11.03;98.41
7774;BME280;3931;42.260;23.116;2023-11-21T07:10:19;95366.03;;;13.12;84.92
7774;BME280;3931;42.260;23.116;2023-11-21T07:12:45;95412.81;;;15.11;66.48
7774;BME280;3931;42.260;23.116;2023-11-21T07:15:12;95412.88;;;15.85;60.37
7774;BME280;3931;42.260;23.116;2023-11-21T07:17:38;95422.47;;;15.52;58.21
7774;BME280;3931;42.260;23.116;2023-11-21T07:20:06;95423.94;;;14.20;63.31
7774;BME280;3931;42.260;23.116;2023-11-21T07:22:32;95428.63;;;13.35;69.19
7774;BME280;3931;42.260;23.116;2023-11-21T07:24:58;95420.41;;;12.57;75.35
7774;BME280;3931;42.260;23.116;2023-11-21T07:27:24;95408.47;;;11.92;81.07
7774;BME280;3931;42.260;23.116;2023-11-21T07:29:50;95400.88;;;12.05;83.46
7774;BME280;3931;42.260;23.116;2023-11-21T07:32:17;95400.50;;;12.50;81.71
7774;BME280;3931;42.260;23.116;2023-11-21T07:34:43;95394.09;;;12.40;82.82
7774;BME280;3931;42.260;23.116;2023-11-21T07:37:09;95396.00;;;12.52;82.17
7774;BME280;3931;42.260;23.116;2023-11-21T07:39:35;95396.47;;;12.72;83.52
7774;BME280;3931;42.260;23.116;2023-11-21T07:42:02;95410.72;;;13.75;77.01
7774;BME280;3931;42.260;23.116;2023-11-21T07:44:28;95424.47;;;14.73;68.38
7774;BME280;3931;42.260;23.116;2023-11-21T07:46:54;95428.72;;;15.79;59.85
7774;BME280;3931;42.260;23.116;2023-11-21T07:49:23;95429.34;;;16.78;56.05
7774;BME280;3931;42.260;23.116;2023-11-21T07:51:49;95423.56;;;16.82;54.69
7774;BME280;3931;42.260;23.116;2023-11-21T07:54:16;95425.69;;;16.25;55.59
7774;BME280;3931;42.260;23.116;2023-11-21T07:56:42;95432.63;;;16.53;55.21
7774;BME280;3931;42.260;23.116;2023-11-21T07:59:08;95429.88;;;17.35;53.36
7774;BME280;3931;42.260;23.116;2023-11-21T08:01:34;95430.72;;;17.41;52.76
7774;BME280;3931;42.260;23.116;2023-11-21T08:04:00;95434.59;;;17.43;51.34
7774;BME280;3931;42.260;23.116;2023-11-21T08:06:29;95426.03;;;17.62;51.83
7774;BME280;3931;42.260;23.116;2023-11-21T08:08:56;95430.34;;;17.33;52.37
7774;BME280;3931;42.260;23.116;2023-11-21T08:11:22;95423.03;;;17.51;52.01
7774;BME280;3931;42.260;23.116;2023-11-21T08:13:48;95424.94;;;17.15;52.85
7774;BME280;3931;42.260;23.116;2023-11-21T08:16:14;95415.69;;;17.24;53.25
7774;BME280;3931;42.260;23.116;2023-11-21T08:18:41;95405.84;;;16.85;54.48
7774;BME280;3931;42.260;23.116;2023-11-21T08:21:07;95429.25;;;18.24;51.05
7774;BME280;3931;42.260;23.116;2023-11-21T08:23:34;95427.03;;;20.28;46.74
7774;BME280;3931;42.260;23.116;2023-11-21T08:26:00;95406.41;;;20.37;44.46
7774;BME280;3931;42.260;23.116;2023-11-21T08:28:28;95412.88;;;19.49;45.89
7774;BME280;3931;42.260;23.116;2023-11-21T08:30:55;95416.53;;;18.23;47.92
7774;BME280;3931;42.260;23.116;2023-11-21T08:33:21;95420.25;;;18.55;48.17
7774;BME280;3931;42.260;23.116;2023-11-21T08:35:47;95402.84;;;19.37;46.82
7774;BME280;3931;42.260;23.116;2023-11-21T08:38:13;95413.00;;;19.34;46.69
7774;BME280;3931;42.260;23.116;2023-11-21T08:40:40;95470.66;;;25.08;38.92
7774;BME280;3931;42.260;23.116;2023-11-21T08:43:06;95438.00;;;27.50;33.63
7774;BME280;3931;42.260;23.116;2023-11-21T08:45:33;95406.50;;;24.92;34.65
7774;BME280;3931;42.260;23.116;2023-11-21T08:48:00;95414.47;;;22.19;39.14
7774;BME280;3931;42.260;23.116;2023-11-21T08:50:26;95406.00;;;21.52;40.99
7774;BME280;3931;42.260;23.116;2023-11-21T08:52:52;95410.38;;;21.64;41.29
7774;BME280;3931;42.260;23.116;2023-11-21T08:55:18;95403.97;;;22.14;40.67
7774;BME280;3931;42.260;23.116;2023-11-21T08:57:46;95389.28;;;24.17;37.99
7774;BME280;3931;42.260;23.116;2023-11-21T09:00:12;95389.84;;;26.52;35.42
7774;BME280;3931;42.260;23.116;2023-11-21T09:02:41;95366.97;;;27.23;33.04
7774;BME280;3931;42.260;23.116;2023-11-21T09:05:08;95353.72;;;28.91;30.98
7774;BME280;3931;42.260;23.116;2023-11-21T09:07:34;95346.84;;;29.81;30.43
7774;BME280;3931;42.260;23.116;2023-11-21T09:10:01;95336.34;;;31.51;28.44
7774;BME280;3931;42.260;23.116;2023-11-21T09:12:27;95311.78;;;30.86;28.46
7774;BME280;3931;42.260;23.116;2023-11-21T09:14:54;95277.63;;;28.35;30.08
7774;BME280;3931;42.260;23.116;2023-11-21T09:17:20;95263.50;;;26.85;32.53
7774;BME280;3931;42.260;23.116;2023-11-21T09:19:46;95245.75;;;25.03;34.88
7774;BME280;3931;42.260;23.116;2023-11-21T09:22:15;95246.19;;;23.01;37.64
7774;BME280;3931;42.260;23.116;2023-11-21T09:24:41;95237.84;;;23.73;37.41
7774;BME280;3931;42.260;23.116;2023-11-21T09:27:08;95248.25;;;25.07;35.09
7774;BME280;3931;42.260;23.116;2023-11-21T09:29:34;95231.44;;;26.64;34.03
7774;BME280;3931;42.260;23.116;2023-11-21T09:32:01;95227.50;;;28.60;31.68
7774;BME280;3931;42.260;23.116;2023-11-21T09:34:28;95216.56;;;27.59;31.93
7774;BME280;3931;42.260;23.116;2023-11-21T09:36:54;95205.69;;;24.81;34.28
7774;BME280;3931;42.260;23.116;2023-11-21T09:39:20;95190.50;;;22.72;37.47
7774;BME280;3931;42.260;23.116;2023-11-21T09:41:49;95194.34;;;20.26;40.97
7774;BME280;3931;42.260;23.116;2023-11-21T09:44:18;95195.53;;;20.09;42.52
7774;BME280;3931;42.260;23.116;2023-11-21T09:46:47;95182.09;;;19.59;44.09
7774;BME280;3931;42.260;23.116;2023-11-21T09:49:15;95188.91;;;18.48;47.17
7774;BME280;3931;42.260;23.116;2023-11-21T09:51:45;95203.53;;;17.66;53.50
7774;BME280;3931;42.260;23.116;2023-11-21T09:54:15;95214.50;;;16.51;60.39
7774;BME280;3931;42.260;23.116;2023-11-21T09:56:43;95213.22;;;15.70;nan
7774;BME280;3931;42.260;23.116;2023-11-21T09:59:13;95204.66;;;14.70;75.43
7774;BME280;3931;42.260;23.116;2023-11-21T10:01:40;95180.72;;;14.03;84.46
7774;BME280;3931;42.260;23.116;2023-11-21T10:04:07;95159.28;;;13.76;87.43
7774;BME280;3931;42.260;23.116;2023-11-21T10:06:38;95138.38;;;12.99;92.42
7774;BME280;3931;42.260;23.116;2023-11-21T10:09:06;95130.09;;;13.45;89.48
7774;BME280;3931;42.260;23.116;2023-11-21T10:11:39;95120.56;;;13.37;88.32
7774;BME280;3931;42.260;23.116;2023-11-21T10:14:08;95095.19;;;12.89;95.34
7774;BME280;3931;42.260;23.116;2023-11-21T10:16:36;95085.00;;;12.86;96.06
7774;BME280;3931;42.260;23.116;2023-11-21T10:19:04;95071.00;;;13.26;97.03
7774;BME280;3931;42.260;23.116;2023-11-21T10:21:32;95060.03;;;13.04;98.10
7774;BME280;3931;42.260;23.116;2023-11-21T10:23:59;95031.94;;;12.66;100.00
7774;BME280;3931;42.260;23.116;2023-11-21T10:26:25;95008.66;;;12.82;100.00
7774;BME280;3931;42.260;23.116;2023-11-21T10:28:56;95012.38;;;13.06;100.00
7774;BME280;3931;42.260;23.116;2023-11-21T10:31:22;95024.41;;;13.30;100.00
7774;BME280;3931;42.260;23.116;2023-11-21T10:33:49;95018.34;;;13.50;100.00
7774;BME280;3931;42.260;23.116;2023-11-21T10:36:25;95007.09;;;12.99;100.00
7774;BME280;3931;42.260;23.116;2023-11-21T10:38:52;95017.59;;;13.04;100.00
7774;BME280;3931;42.260;23.116;2023-11-21T10:41:19;94989.22;;;12.82;100.00
7774;BME280;3931;42.260;23.116;2023-11-21T10:43:45;94976.72;;;12.77;100.00
7774;BME280;3931;42.260;23.116;2023-11-21T10:46:12;94979.19;;;13.02;100.00
7774;BME280;3931;42.260;23.116;2023-11-21T10:48:41;94980.44;;;13.10;100.00
7774;BME280;3931;42.260;23.116;2023-11-21T10:51:08;95004.97;;;13.30;100.00
7774;BME280;3931;42.260;23.116;2023-11-21T10:53:38;95003.88;;;13.28;100.00
7774;BME280;3931;42.260;23.116;2023-11-21T10:56:06;95004.34;;;13.08;100.00
7774;BME280;3931;42.260;23.116;2023-11-21T10:58:35;95001.09;;;12.82;100.00
7774;BME280;3931;42.260;23.116;2023-11-21T11:01:02;94994.00;;;12.81;100.00
7774;BME280;3931;42.260;23.116;2023-11-21T11:03:30;94994.31;;;12.92;100.00
7774;BME280;3931;42.260;23.116;2023-11-21T11:05:59;94968.88;;;12.76;100.00
7774;BME280;3931;42.260;23.116;2023-11-21T11:08:25;94961.16;;;12.71;100.00
7774;BME280;3931;42.260;23.116;2023-11-21T11:10:53;94940.16;;;12.97;100.00
7774;BME280;3931;42.260;23.116;2023-11-21T11:13:19;94937.38;;;13.15;100.00
7774;BME280;3931;42.260;23.116;2023-11-21T11:15:47;94919.59;;;13.31;100.00
7774;BME280;3931;42.260;23.116;2023-11-21T11:18:14;94944.50;;;13.58;100.00
7774;BME280;3931;42.260;23.116;2023-11-21T11:20:42;94957.13;;;14.01;100.00
7774;BME280;3931;42.260;23.116;2023-11-21T11:23:22;94965.19;;;14.70;100.00
7774;BME280;3931;42.260;23.116;2023-11-21T11:26:05;95018.19;;;15.81;100.00
7774;BME280;3931;42.260;23.116;2023-11-21T11:28:40;95074.50;;;16.78;86.19
7774;BME280;3931;42.260;23.116;2023-11-21T11:31:17;95091.03;;;16.47;80.38
7774;BME280;3931;42.260;23.116;2023-11-21T11:33:53;95101.97;;;17.00;77.87
7774;BME280;3931;42.260;23.116;2023-11-21T11:36:28;95107.44;;;16.74;78.81
7774;BME280;3931;42.260;23.116;2023-11-21T11:38:55;95082.13;;;16.28;81.90
7774;BME280;3931;42.260;23.116;2023-11-21T11:41:25;95085.81;;;15.90;84.23
7774;BME280;3931;42.260;23.116;2023-11-21T11:43:52;95074.75;;;15.81;85.87
7774;BME280;3931;42.260;23.116;2023-11-21T11:46:19;95079.59;;;16.80;81.92
7774;BME280;3931;42.260;23.116;2023-11-21T11:48:47;95083.69;;;16.64;79.83
7774;BME280;3931;42.260;23.116;2023-11-21T11:51:14;95059.59;;;16.17;82.25
7774;BME280;3931;42.260;23.116;2023-11-21T11:53:44;95040.00;;;15.82;87.02
7774;BME280;3931;42.260;23.116;2023-11-21T11:56:22;95021.59;;;16.05;87.99
7774;BME280;3931;42.260;23.116;2023-11-21T11:58:49;95018.25;;;16.01;86.61
7774;BME280;3931;42.260;23.116;2023-11-21T12:01:17;95016.88;;;16.46;83.86
7774;BME280;3931;42.260;23.116;2023-11-21T12:03:47;95023.44;;;16.57;82.20
7774;BME280;3931;42.260;23.116;2023-11-21T12:06:33;95016.81;;;16.95;80.04
7774;BME280;3931;42.260;23.116;2023-11-21T12:09:01;95013.25;;;16.40;81.08
7774;BME280;3931;42.260;23.116;2023-11-21T12:11:30;95005.03;;;16.16;87.39
7774;BME280;3931;42.260;23.116;2023-11-21T12:13:57;94988.31;;;16.51;86.90
7774;BME280;3931;42.260;23.116;2023-11-21T12:16:25;94996.06;;;16.61;85.61
7774;BME280;3931;42.260;23.116;2023-11-21T12:18:53;94994.00;;;16.42;87.30
7774;BME280;3931;42.260;23.116;2023-11-21T12:21:19;94998.28;;;16.23;83.84
7774;BME280;3931;42.260;23.116;2023-11-21T12:23:46;94980.91;;;16.13;86.27
7774;BME280;3931;42.260;23.116;2023-11-21T12:26:13;95001.72;;;16.67;83.28
7774;BME280;3931;42.260;23.116;2023-11-21T12:28:39;95005.00;;;16.65;78.90
7774;BME280;3931;42.260;23.116;2023-11-21T12:31:05;94991.69;;;16.05;83.26
7774;BME280;3931;42.260;23.116;2023-11-21T12:33:32;94978.28;;;16.10;87.31
7774;BME280;3931;42.260;23.116;2023-11-21T12:35:59;94980.94;;;16.33;87.61
7774;BME280;3931;42.260;23.116;2023-11-21T12:38:33;94979.34;;;16.47;84.36
7774;BME280;3931;42.260;23.116;2023-11-21T12:41:00;94983.59;;;16.42;85.58
7774;BME280;3931;42.260;23.116;2023-11-21T12:43:26;94967.72;;;16.34;86.41
7774;BME280;3931;42.260;23.116;2023-11-21T12:46:04;94984.00;;;16.35;86.99
7774;BME280;3931;42.260;23.116;2023-11-21T12:48:31;94965.78;;;16.20;88.78
7774;BME280;3931;42.260;23.116;2023-11-21T12:50:58;94962.88;;;15.79;92.67
7774;BME280;3931;42.260;23.116;2023-11-21T12:53:26;94941.06;;;15.78;96.46
7774;BME280;3931;42.260;23.116;2023-11-21T12:55:52;94961.16;;;15.82;92.94
7774;BME280;3931;42.260;23.116;2023-11-21T12:58:24;94962.88;;;15.79;93.34
7774;BME280;3931;42.260;23.116;2023-11-21T13:00:50;94949.47;;;15.49;96.17
7774;BME280;3931;42.260;23.116;2023-11-21T13:03:19;94935.88;;;15.42;100.00
7774;BME280;3931;42.260;23.116;2023-11-21T13:05:51;94912.41;;;15.63;100.00
7774;BME280;3931;42.260;23.116;2023-11-21T13:08:20;94919.53;;;15.34;100.00
7774;BME280;3931;42.260;23.116;2023-11-21T13:10:49;94901.25;;;15.33;100.00